Time;durP1;ratioP1;P1;durP2;ratioP2;P2;SDS_P1;SDS_P2;PMS_P1;PMS_P2;Temp;Humidity;BMP_temperature;BMP_pressure;BME280_temperature;BME280_humidity;BME280_pressure;Samples;Min_cycle;Max_cycle;Signal;HPM_P1;HPM_P2
2021/10/17 00:01:47;;;;;;;15.40;9.93;;;;;;;;;;6147733;23;20060;-59
2021/10/17 00:04:12;;;;;;;15.02;9.07;;;;;;;;;;6150522;23;20016;-61
2021/10/17 00:06:38;;;;;;;18.20;9.27;;;;;;;;;;6152254;23;20001;-59
2021/10/17 00:09:03;;;;;;;15.48;8.68;;;;;;;;;;6151550;23;20032;-60
2021/10/17 00:11:29;;;;;;;15.48;8.80;;;;;;;;;;6152729;23;20485;-59
2021/10/17 00:13:54;;;;;;;17.10;9.23;;;;;;;;;;6149664;23;20012;-59
2021/10/17 00:16:19;;;;;;;15.60;9.30;;;;;;;;;;6124957;23;20051;-59
2021/10/17 00:18:45;;;;;;;15.40;8.57;;;;;;;;;;6151646;23;20060;-58
2021/10/17 00:21:11;;;;;;;17.23;9.25;;;;;;;;;;6151632;23;20043;-60
2021/10/17 00:23:36;;;;;;;19.35;9.82;;;;;;;;;;6151831;23;20035;-60
2021/10/17 00:26:02;;;;;;;17.23;9.95;;;;;;;;;;6150744;23;20009;-59
2021/10/17 00:28:27;;;;;;;15.45;8.57;;;;;;;;;;6152102;23;20071;-59
2021/10/17 00:30:52;;;;;;;14.10;9.10;;;;;;;;;;6152229;23;20008;-61
2021/10/17 00:33:17;;;;;;;15.48;8.65;;;;;;;;;;6149579;23;20001;-59
2021/10/17 00:35:43;;;;;;;18.50;8.68;;;;;;;;;;6143783;23;20009;-59
2021/10/17 00:38:08;;;;;;;19.27;9.02;;;;;;;;;;6148385;23;20426;-60
2021/10/17 00:40:34;;;;;;;13.43;8.45;;;;;;;;;;6149940;23;20005;-60
2021/10/17 00:43:00;;;;;;;17.58;7.70;;;;;;;;;;6151716;23;20064;-61
2021/10/17 00:45:30;;;;;;;14.20;7.78;;;;;;;;;;6151408;23;20060;-59
2021/10/17 00:47:56;;;;;;;15.07;7.85;;;;;;;;;;6151248;23;20036;-59
2021/10/17 00:50:22;;;;;;;13.00;7.23;;;;;;;;;;6151087;23;20014;-59
2021/10/17 00:52:48;;;;;;;13.88;8.18;;;;;;;;;;6151991;23;20369;-59
2021/10/17 00:55:16;;;;;;;16.25;8.18;;;;;;;;;;6150755;23;20001;-59
2021/10/17 00:57:43;;;;;;;13.02;7.50;;;;;;;;;;6149349;23;20009;-60
2021/10/17 01:00:09;;;;;;;12.53;7.63;;;;;;;;;;6149063;23;20022;-59
2021/10/17 01:02:34;;;;;;;14.02;7.55;;;;;;;;;;6151220;23;20245;-60
2021/10/17 01:05:00;;;;;;;15.23;7.78;;;;;;;;;;6152029;23;20080;-58
2021/10/17 01:07:26;;;;;;;14.63;7.72;;;;;;;;;;6148179;23;20002;-59
2021/10/17 01:09:51;;;;;;;12.77;7.60;;;;;;;;;;6152034;23;20431;-60
2021/10/17 01:12:16;;;;;;;17.42;8.38;;;;;;;;;;6152705;23;20012;-59
2021/10/17 01:14:42;;;;;;;14.82;8.30;;;;;;;;;;6152148;23;20002;-59
2021/10/17 01:17:07;;;;;;;13.98;7.72;;;;;;;;;;6150427;23;20010;-59
2021/10/17 01:19:33;;;;;;;13.23;7.13;;;;;;;;;;6151622;23;20005;-58
2021/10/17 01:21:58;;;;;;;12.73;7.47;;;;;;;;;;6152288;23;20005;-60
2021/10/17 01:24:23;;;;;;;13.45;8.10;;;;;;;;;;6152029;23;20012;-59
2021/10/17 01:26:49;;;;;;;13.68;7.57;;;;;;;;;;6151240;23;20005;-59
2021/10/17 01:29:14;;;;;;;12.23;6.95;;;;;;;;;;6150946;23;20355;-59
2021/10/17 01:31:46;;;;;;;13.98;7.60;;;;;;;;;;6152599;23;20001;-59
2021/10/17 01:34:18;;;;;;;12.70;7.70;;;;;;;;;;6150897;23;20084;-59
2021/10/17 01:36:43;;;;;;;14.05;7.60;;;;;;;;;;6124628;23;20515;-59
2021/10/17 01:39:11;;;;;;;16.05;7.78;;;;;;;;;;6147568;23;20029;-58
2021/10/17 01:41:37;;;;;;;14.38;7.60;;;;;;;;;;6128307;23;20012;-59
2021/10/17 01:44:08;;;;;;;14.25;7.90;;;;;;;;;;6126668;23;20006;-59
2021/10/17 01:46:35;;;;;;;14.02;7.10;;;;;;;;;;6154177;23;20016;-58
2021/10/17 01:49:02;;;;;;;10.57;7.05;;;;;;;;;;6153655;23;20006;-58
2021/10/17 01:51:27;;;;;;;11.90;6.82;;;;;;;;;;6153646;23;20372;-58
2021/10/17 01:53:53;;;;;;;14.98;7.00;;;;;;;;;;6153990;23;20021;-58
2021/10/17 01:56:18;;;;;;;14.70;8.05;;;;;;;;;;6153252;23;20012;-59
2021/10/17 01:58:44;;;;;;;23.83;8.07;;;;;;;;;;6152892;23;20020;-59
2021/10/17 02:01:10;;;;;;;15.43;7.97;;;;;;;;;;6152392;23;20025;-59
2021/10/17 02:03:35;;;;;;;13.93;7.70;;;;;;;;;;6152077;23;20006;-59
2021/10/17 02:06:02;;;;;;;15.63;8.10;;;;;;;;;;6153464;23;20028;-59
2021/10/17 02:08:28;;;;;;;13.45;7.68;;;;;;;;;;6151721;23;20483;-59
2021/10/17 02:10:53;;;;;;;11.02;6.90;;;;;;;;;;6151278;23;20009;-58
2021/10/17 02:13:19;;;;;;;13.85;7.30;;;;;;;;;;6153814;23;20092;-59
2021/10/17 02:15:44;;;;;;;11.07;7.63;;;;;;;;;;6153888;23;20076;-59
2021/10/17 02:18:09;;;;;;;13.95;7.30;;;;;;;;;;6152302;23;20002;-59
2021/10/17 02:20:36;;;;;;;12.75;7.32;;;;;;;;;;6153864;23;20005;-59
2021/10/17 02:23:04;;;;;;;11.32;7.10;;;;;;;;;;6153494;23;20086;-58
2021/10/17 02:25:30;;;;;;;15.98;8.68;;;;;;;;;;6154294;23;20014;-59
2021/10/17 02:27:55;;;;;;;16.27;8.52;;;;;;;;;;6152736;23;20331;-59
2021/10/17 02:30:21;;;;;;;15.60;7.18;;;;;;;;;;6153128;23;20001;-59
2021/10/17 02:32:46;;;;;;;13.60;7.50;;;;;;;;;;6152798;23;20002;-58
2021/10/17 02:35:12;;;;;;;14.10;7.85;;;;;;;;;;6153896;23;20059;-58
2021/10/17 02:37:37;;;;;;;12.82;7.93;;;;;;;;;;6153620;23;20387;-58
2021/10/17 02:40:04;;;;;;;15.45;8.23;;;;;;;;;;6153394;23;20060;-59
2021/10/17 02:42:39;;;;;;;12.60;7.63;;;;;;;;;;6150553;23;20017;-59
2021/10/17 02:45:05;;;;;;;13.68;7.43;;;;;;;;;;6152287;23;20001;-59
2021/10/17 02:47:31;;;;;;;16.48;6.97;;;;;;;;;;6153258;23;20001;-59
2021/10/17 02:49:56;;;;;;;13.23;7.40;;;;;;;;;;6153279;23;20009;-59
2021/10/17 02:52:21;;;;;;;12.95;6.88;;;;;;;;;;6153634;23;20006;-60
2021/10/17 02:54:47;;;;;;;17.00;7.97;;;;;;;;;;6153496;23;20386;-58
2021/10/17 02:57:12;;;;;;;12.55;7.53;;;;;;;;;;6127344;23;20005;-59
2021/10/17 02:59:37;;;;;;;14.05;7.88;;;;;;;;;;6151566;23;20021;-59
2021/10/17 03:02:03;;;;;;;12.73;7.43;;;;;;;;;;6151564;23;20016;-59
2021/10/17 03:04:28;;;;;;;16.05;8.40;;;;;;;;;;6150797;23;20071;-59
2021/10/17 03:06:54;;;;;;;13.32;7.88;;;;;;;;;;6125757;23;20012;-59
2021/10/17 03:09:19;;;;;;;12.45;7.85;;;;;;;;;;6150699;23;20005;-58
2021/10/17 03:11:44;;;;;;;12.50;8.13;;;;;;;;;;6152975;23;20029;-59
2021/10/17 03:14:10;;;;;;;17.92;8.35;;;;;;;;;;6153368;23;20448;-59
2021/10/17 03:16:35;;;;;;;13.40;7.97;;;;;;;;;;6150729;23;20005;-58
2021/10/17 03:19:00;;;;;;;12.48;8.07;;;;;;;;;;6151344;23;20001;-58
2021/10/17 03:21:26;;;;;;;14.88;7.93;;;;;;;;;;6152903;23;20013;-58
2021/10/17 03:23:52;;;;;;;14.60;7.28;;;;;;;;;;6151920;23;20009;-59
2021/10/17 03:26:17;;;;;;;14.23;6.95;;;;;;;;;;6153463;23;20379;-58
2021/10/17 03:28:42;;;;;;;15.27;7.38;;;;;;;;;;6126935;23;20048;-59
2021/10/17 03:31:08;;;;;;;16.35;6.95;;;;;;;;;;6152097;23;20416;-59
2021/10/17 03:33:34;;;;;;;13.25;6.90;;;;;;;;;;6152889;23;19997;-58
2021/10/17 03:36:00;;;;;;;12.38;6.65;;;;;;;;;;6152023;23;20017;-59
2021/10/17 03:38:44;;;;;;;11.80;7.05;;;;;;;;;;6150395;23;20327;-58
2021/10/17 03:41:12;;;;;;;12.90;7.30;;;;;;;;;;6151736;23;20009;-59
2021/10/17 03:43:41;;;;;;;13.70;6.80;;;;;;;;;;6150503;23;20001;-59
2021/10/17 03:46:06;;;;;;;15.18;7.68;;;;;;;;;;6151166;23;20005;-59
2021/10/17 03:48:32;;;;;;;12.45;7.20;;;;;;;;;;6149149;23;20006;-58
2021/10/17 03:50:58;;;;;;;13.98;7.75;;;;;;;;;;6151790;23;20009;-58
2021/10/17 03:53:23;;;;;;;12.93;7.18;;;;;;;;;;6152368;23;20088;-59
2021/10/17 03:55:48;;;;;;;16.42;7.55;;;;;;;;;;6152508;23;20020;-59
2021/10/17 03:58:14;;;;;;;15.23;8.07;;;;;;;;;;6152651;23;20348;-58
2021/10/17 04:00:39;;;;;;;13.45;6.85;;;;;;;;;;6152729;23;20053;-58
2021/10/17 04:03:04;;;;;;;14.73;7.15;;;;;;;;;;6150342;23;20432;-58
2021/10/17 04:05:30;;;;;;;14.15;7.10;;;;;;;;;;6150872;23;20013;-60
2021/10/17 04:07:55;;;;;;;15.05;8.23;;;;;;;;;;6125354;23;20199;-59
2021/10/17 04:10:20;;;;;;;15.35;7.40;;;;;;;;;;6151964;23;20001;-59
2021/10/17 04:12:46;;;;;;;11.07;7.00;;;;;;;;;;6151619;23;20005;-59
2021/10/17 04:15:11;;;;;;;16.30;7.72;;;;;;;;;;6151998;23;20153;-58
2021/10/17 04:17:37;;;;;;;14.50;7.53;;;;;;;;;;6152182;23;20420;-59
2021/10/17 04:20:03;;;;;;;12.75;6.93;;;;;;;;;;6148547;23;20012;-59
2021/10/17 04:22:30;;;;;;;13.65;7.53;;;;;;;;;;6150671;23;20006;-58
2021/10/17 04:24:55;;;;;;;16.73;7.47;;;;;;;;;;6127000;23;20010;-58
2021/10/17 04:27:20;;;;;;;16.75;7.40;;;;;;;;;;6151492;23;20528;-59
2021/10/17 04:29:46;;;;;;;11.65;6.63;;;;;;;;;;6152389;23;20006;-59
2021/10/17 04:32:11;;;;;;;13.13;7.38;;;;;;;;;;6151716;23;20072;-58
2021/10/17 04:34:37;;;;;;;14.25;6.68;;;;;;;;;;6150815;23;20001;-58
2021/10/17 04:37:05;;;;;;;13.13;6.05;;;;;;;;;;6153058;23;20036;-58
2021/10/17 04:39:30;;;;;;;11.68;6.13;;;;;;;;;;6150792;23;20005;-59
2021/10/17 04:41:56;;;;;;;9.38;6.32;;;;;;;;;;6152915;23;20011;-60
2021/10/17 04:44:21;;;;;;;12.40;6.35;;;;;;;;;;6150251;23;20009;-58
2021/10/17 04:46:46;;;;;;;9.30;6.20;;;;;;;;;;6150765;23;20055;-58
2021/10/17 04:49:18;;;;;;;14.00;6.90;;;;;;;;;;6150696;23;20359;-59
2021/10/17 04:51:43;;;;;;;12.88;6.40;;;;;;;;;;6151376;23;20012;-59
2021/10/17 04:54:18;;;;;;;11.82;6.18;;;;;;;;;;6149391;23;20072;-60
2021/10/17 04:56:50;;;;;;;12.07;6.25;;;;;;;;;;6152863;23;20005;-59
2021/10/17 04:59:21;;;;;;;13.77;6.53;;;;;;;;;;6150921;23;20001;-59
2021/10/17 05:01:47;;;;;;;12.07;6.60;;;;;;;;;;6122554;23;20025;-59
2021/10/17 05:04:13;;;;;;;12.88;6.43;;;;;;;;;;6095367;23;20005;-59
2021/10/17 05:06:38;;;;;;;13.85;6.47;;;;;;;;;;6121840;23;20098;-59
2021/10/17 05:09:03;;;;;;;14.13;6.05;;;;;;;;;;6121688;23;20010;-58
2021/10/17 05:11:29;;;;;;;11.23;6.15;;;;;;;;;;6120731;23;20442;-59
2021/10/17 05:13:54;;;;;;;8.80;6.10;;;;;;;;;;6094526;23;20076;-59
2021/10/17 05:16:20;;;;;;;13.75;7.35;;;;;;;;;;6121702;23;20033;-59
2021/10/17 05:18:45;;;;;;;12.13;6.40;;;;;;;;;;6122220;23;20006;-58
2021/10/17 05:21:10;;;;;;;13.15;5.85;;;;;;;;;;6122396;23;20425;-58
2021/10/17 05:23:36;;;;;;;9.98;6.40;;;;;;;;;;6121018;23;20397;-58
2021/10/17 05:26:03;;;;;;;11.20;5.95;;;;;;;;;;6119264;23;20017;-59
2021/10/17 05:28:29;;;;;;;11.23;6.38;;;;;;;;;;6122096;23;20081;-59
2021/10/17 05:30:55;;;;;;;14.73;6.65;;;;;;;;;;6122954;23;20008;-60
2021/10/17 05:33:20;;;;;;;12.50;6.25;;;;;;;;;;6120761;23;20029;-60
2021/10/17 05:35:45;;;;;;;13.13;7.00;;;;;;;;;;6119067;23;20013;-59
2021/10/17 05:38:11;;;;;;;11.20;6.60;;;;;;;;;;6122355;23;20546;-59
2021/10/17 05:40:36;;;;;;;12.93;6.93;;;;;;;;;;6122198;23;20528;-59
2021/10/17 05:43:01;;;;;;;13.00;6.47;;;;;;;;;;6122682;23;20425;-59
2021/10/17 05:45:27;;;;;;;15.10;7.53;;;;;;;;;;6122493;23;20373;-60
2021/10/17 05:48:08;;;;;;;11.73;6.47;;;;;;;;;;6120927;23;20010;-59
2021/10/17 05:50:33;;;;;;;13.18;6.35;;;;;;;;;;6120349;23;20009;-58
2021/10/17 05:52:58;;;;;;;11.02;6.35;;;;;;;;;;6095906;23;20179;-58
2021/10/17 05:55:24;;;;;;;10.82;6.78;;;;;;;;;;6121133;23;20374;-59
2021/10/17 05:57:49;;;;;;;12.88;6.43;;;;;;;;;;6118999;23;20009;-58
2021/10/17 06:00:14;;;;;;;12.52;6.53;;;;;;;;;;6133038;23;20017;-59
2021/10/17 06:02:41;;;;;;;11.07;6.53;;;;;;;;;;6151000;23;20010;-59
2021/10/17 06:05:07;;;;;;;12.27;6.60;;;;;;;;;;6124827;23;20009;-59
2021/10/17 06:07:34;;;;;;;10.40;6.35;;;;;;;;;;6149857;23;20017;-58
2021/10/17 06:10:00;;;;;;;;;;;;;;;;;;6124443;23;20009;-58
2021/10/17 06:12:26;;;;;;;12.95;6.00;;;;;;;;;;6151812;23;19959;-59
2021/10/17 06:14:51;;;;;;;11.00;6.22;;;;;;;;;;6151012;23;20013;-58
2021/10/17 06:17:17;;;;;;;13.07;7.00;;;;;;;;;;6150571;23;20009;-60
2021/10/17 06:19:42;;;;;;;11.18;7.25;;;;;;;;;;6150914;23;20006;-59
2021/10/17 06:22:07;;;;;;;13.27;7.45;;;;;;;;;;6151844;23;20017;-58
2021/10/17 06:24:34;;;;;;;14.75;7.40;;;;;;;;;;6151302;23;20001;-59
2021/10/17 06:27:00;;;;;;;13.13;6.85;;;;;;;;;;6152881;23;20110;-59
2021/10/17 06:29:25;;;;;;;12.40;6.80;;;;;;;;;;6148992;23;21029;-59
2021/10/17 06:31:51;;;;;;;11.70;6.65;;;;;;;;;;6153652;23;20005;-60
2021/10/17 06:34:16;;;;;;;11.73;6.88;;;;;;;;;;6126375;23;20002;-59
2021/10/17 06:36:41;;;;;;;13.18;7.28;;;;;;;;;;6151627;23;20416;-59
2021/10/17 06:39:10;;;;;;;14.52;6.93;;;;;;;;;;6126617;23;20511;-59
2021/10/17 06:41:42;;;;;;;12.40;6.63;;;;;;;;;;6126601;23;20013;-59
2021/10/17 06:44:10;;;;;;;13.48;6.78;;;;;;;;;;6126764;23;20499;-59
2021/10/17 06:46:41;;;;;;;13.90;6.85;;;;;;;;;;6152727;23;20012;-59
2021/10/17 06:49:13;;;;;;;9.85;6.68;;;;;;;;;;6153139;23;20006;-59
2021/10/17 06:51:38;;;;;;;13.18;6.30;;;;;;;;;;6151847;23;20009;-59
2021/10/17 06:54:13;;;;;;;12.07;5.90;;;;;;;;;;6126104;23;20081;-59
2021/10/17 06:56:41;;;;;;;12.38;6.03;;;;;;;;;;6152787;23;20107;-59
2021/10/17 06:59:16;;;;;;;9.98;5.90;;;;;;;;;;6153046;23;20024;-59
2021/10/17 07:01:41;;;;;;;8.75;5.97;;;;;;;;;;6123445;23;20021;-59
2021/10/17 07:04:07;;;;;;;11.60;5.82;;;;;;;;;;6152441;23;20013;-59
2021/10/17 07:06:32;;;;;;;9.82;5.60;;;;;;;;;;6153502;23;20058;-58
2021/10/17 07:08:58;;;;;;;8.43;5.43;;;;;;;;;;6151229;23;20345;-59
2021/10/17 07:11:23;;;;;;;13.00;6.75;;;;;;;;;;6150236;23;20012;-59
2021/10/17 07:13:48;;;;;;;10.00;5.50;;;;;;;;;;6151899;23;20001;-58
2021/10/17 07:16:14;;;;;;;10.02;6.10;;;;;;;;;;6152621;23;20017;-58
2021/10/17 07:18:45;;;;;;;11.40;6.20;;;;;;;;;;6152139;23;20056;-58
2021/10/17 07:21:11;;;;;;;13.07;5.57;;;;;;;;;;6153321;23;20005;-57
2021/10/17 07:23:36;;;;;;;10.45;5.85;;;;;;;;;;6150346;23;20013;-58
2021/10/17 07:26:02;;;;;;;12.93;6.40;;;;;;;;;;6152574;23;20006;-58
2021/10/17 07:28:27;;;;;;;9.98;6.38;;;;;;;;;;6150776;23;20424;-58
2021/10/17 07:30:52;;;;;;;15.57;6.35;;;;;;;;;;6153478;23;20009;-58
2021/10/17 07:33:18;;;;;;;8.73;6.47;;;;;;;;;;6151802;23;20005;-58
2021/10/17 07:35:46;;;;;;;11.70;6.53;;;;;;;;;;6147993;23;20467;-58
2021/10/17 07:38:11;;;;;;;14.10;6.93;;;;;;;;;;6150573;23;20416;-58
2021/10/17 07:40:37;;;;;;;10.95;6.90;;;;;;;;;;6151801;23;20080;-58
2021/10/17 07:43:17;;;;;;;11.38;6.70;;;;;;;;;;6152625;23;20005;-58
2021/10/17 07:45:43;;;;;;;11.57;6.80;;;;;;;;;;6153395;23;20006;-58
2021/10/17 07:48:17;;;;;;;12.88;6.78;;;;;;;;;;6150147;23;20009;-58
2021/10/17 07:50:42;;;;;;;14.80;6.82;;;;;;;;;;6123914;23;20029;-58
2021/10/17 07:53:17;;;;;;;11.48;6.47;;;;;;;;;;6150910;23;20005;-58
2021/10/17 07:55:48;;;;;;;10.10;7.10;;;;;;;;;;6151351;23;20008;-58
2021/10/17 07:58:13;;;;;;;11.38;6.38;;;;;;;;;;6150170;23;20013;-58
2021/10/17 08:00:39;;;;;;;14.68;7.18;;;;;;;;;;6151316;23;20364;-58
2021/10/17 08:03:04;;;;;;;15.80;6.57;;;;;;;;;;6148253;23;20005;-58
2021/10/17 08:05:30;;;;;;;12.40;6.88;;;;;;;;;;6135710;23;20005;-58
2021/10/17 08:07:55;;;;;;;10.93;6.43;;;;;;;;;;6142119;23;20005;-58
2021/10/17 08:10:21;;;;;;;11.07;6.10;;;;;;;;;;6146548;23;20024;-58
2021/10/17 08:12:46;;;;;;;13.10;6.25;;;;;;;;;;6146440;23;20005;-58
2021/10/17 08:15:12;;;;;;;8.93;5.90;;;;;;;;;;6143765;23;20016;-59
2021/10/17 08:17:49;;;;;;;10.48;5.95;;;;;;;;;;6145057;23;20006;-58
2021/10/17 08:20:14;;;;;;;;;;;;;;;;;;6146923;23;20017;-58
2021/10/17 08:22:48;;;;;;;8.63;5.47;;;;;;;;;;6146444;23;19939;-59
2021/10/17 08:25:14;;;;;;;10.82;5.45;;;;;;;;;;6145646;23;20233;-58
2021/10/17 08:27:51;;;;;;;12.93;5.57;;;;;;;;;;6146831;23;20009;-58
2021/10/17 08:30:17;;;;;;;9.52;5.03;;;;;;;;;;6118013;23;20020;-58
2021/10/17 08:32:51;;;;;;;12.07;5.85;;;;;;;;;;6146913;23;20492;-59
2021/10/17 08:35:17;;;;;;;13.18;5.93;;;;;;;;;;6143318;23;20009;-59
2021/10/17 08:37:51;;;;;;;11.70;5.68;;;;;;;;;;6144634;23;20079;-58
2021/10/17 08:40:16;;;;;;;10.13;5.70;;;;;;;;;;6145552;23;20269;-57
2021/10/17 08:42:42;;;;;;;12.18;6.57;;;;;;;;;;6145393;23;20082;-58
2021/10/17 08:45:08;;;;;;;13.70;6.40;;;;;;;;;;6145958;23;20420;-59
2021/10/17 08:47:34;;;;;;;14.50;6.60;;;;;;;;;;6145266;23;20005;-58
2021/10/17 08:50:01;;;;;;;11.07;5.95;;;;;;;;;;6145486;23;20096;-58
2021/10/17 08:52:38;;;;;;;10.30;6.13;;;;;;;;;;6146056;23;20435;-58
2021/10/17 08:55:06;;;;;;;10.77;5.97;;;;;;;;;;6144028;23;20016;-58
2021/10/17 08:57:32;;;;;;;9.77;6.47;;;;;;;;;;6118278;23;20013;-58
2021/10/17 08:59:57;;;;;;;11.32;6.30;;;;;;;;;;6145073;23;20022;-58
2021/10/17 09:02:43;;;;;;;12.43;6.00;;;;;;;;;;6142213;23;20030;-58
2021/10/17 09:05:09;;;;;;;11.65;6.22;;;;;;;;;;6144603;23;20321;-58
2021/10/17 09:07:34;;;;;;;11.20;5.93;;;;;;;;;;6140987;23;20581;-58
2021/10/17 09:10:14;;;;;;;13.27;6.55;;;;;;;;;;6144996;23;20032;-58
2021/10/17 09:12:42;;;;;;;9.30;6.13;;;;;;;;;;6145331;23;20017;-59
2021/10/17 09:15:28;;;;;;;12.75;5.95;;;;;;;;;;6145723;23;20009;-59
2021/10/17 09:18:08;;;;;;;13.98;6.63;;;;;;;;;;6146552;23;20444;-59
2021/10/17 09:20:54;;;;;;;11.82;5.90;;;;;;;;;;6145659;23;20006;-59
2021/10/17 09:23:41;;;;;;;7.60;5.78;;;;;;;;;;6145500;23;20621;-59
2021/10/17 09:26:15;;;;;;;12.60;6.18;;;;;;;;;;6146586;23;20044;-59
2021/10/17 09:28:41;;;;;;;10.10;5.30;;;;;;;;;;6146066;23;20010;-59
2021/10/17 09:31:07;;;;;;;13.07;6.25;;;;;;;;;;6145730;23;20040;-59
2021/10/17 09:33:49;;;;;;;9.10;5.53;;;;;;;;;;6145640;23;20001;-58
2021/10/17 09:36:18;;;;;;;11.75;5.97;;;;;;;;;;6146727;23;20055;-59
2021/10/17 09:38:45;;;;;;;12.48;6.32;;;;;;;;;;6146530;23;20005;-59
2021/10/17 09:41:23;;;;;;;12.63;6.20;;;;;;;;;;6117535;23;20013;-59
2021/10/17 09:43:50;;;;;;;9.98;6.00;;;;;;;;;;6145712;23;20013;-59
2021/10/17 09:46:16;;;;;;;;;;;;;;;;;;6147760;23;20029;-59
2021/10/17 09:48:43;;;;;;;12.05;5.65;;;;;;;;;;6146907;23;19912;-58
2021/10/17 09:51:14;;;;;;;9.93;5.50;;;;;;;;;;6146794;23;20404;-59
2021/10/17 09:53:39;;;;;;;11.50;5.60;;;;;;;;;;6146536;23;19997;-59
2021/10/17 09:56:05;;;;;;;9.80;5.72;;;;;;;;;;6146641;23;20063;-60
2021/10/17 09:58:30;;;;;;;10.10;5.15;;;;;;;;;;6145586;23;20085;-58
2021/10/17 10:00:57;;;;;;;13.73;5.90;;;;;;;;;;6147472;23;20045;-59
2021/10/17 10:03:24;;;;;;;11.05;5.63;;;;;;;;;;6147585;23;20571;-59
2021/10/17 10:05:50;;;;;;;8.45;5.32;;;;;;;;;;6148421;23;20021;-59
2021/10/17 10:08:21;;;;;;;11.48;5.78;;;;;;;;;;6148185;23;20021;-59
2021/10/17 10:10:50;;;;;;;11.05;6.03;;;;;;;;;;6148294;23;20016;-59
2021/10/17 10:13:17;;;;;;;10.32;5.47;;;;;;;;;;6144694;23;20080;-59
2021/10/17 10:15:44;;;;;;;10.27;5.60;;;;;;;;;;6147016;23;20017;-59
2021/10/17 10:18:12;;;;;;;12.52;5.90;;;;;;;;;;6145810;23;20404;-59
2021/10/17 10:20:39;;;;;;;10.13;5.55;;;;;;;;;;6121761;23;20075;-58
2021/10/17 10:23:07;;;;;;;11.10;5.68;;;;;;;;;;6147368;23;20016;-59
2021/10/17 10:25:33;;;;;;;12.60;6.25;;;;;;;;;;6147620;23;20104;-59
2021/10/17 10:27:59;;;;;;;10.35;5.28;;;;;;;;;;6145748;23;20081;-58
2021/10/17 10:30:34;;;;;;;9.70;4.88;;;;;;;;;;6144368;23;20383;-59
2021/10/17 10:33:09;;;;;;;10.70;5.03;;;;;;;;;;6146023;23;20092;-59
2021/10/17 10:35:36;;;;;;;9.05;5.18;;;;;;;;;;6148295;23;20048;-59
2021/10/17 10:38:02;;;;;;;10.15;5.50;;;;;;;;;;6147389;23;20016;-59
2021/10/17 10:40:27;;;;;;;11.10;5.45;;;;;;;;;;6146927;23;20020;-59
2021/10/17 10:42:53;;;;;;;9.63;5.18;;;;;;;;;;6147485;23;20035;-60
2021/10/17 10:45:34;;;;;;;8.65;5.25;;;;;;;;;;6143718;23;20059;-60
2021/10/17 10:48:05;;;;;;;9.63;4.97;;;;;;;;;;6146306;23;20013;-59
2021/10/17 10:50:36;;;;;;;10.95;4.80;;;;;;;;;;6147411;23;20014;-59
2021/10/17 10:53:02;;;;;;;12.35;4.80;;;;;;;;;;6147783;23;20009;-59
2021/10/17 10:55:56;;;;;;;7.45;4.40;;;;;;;;;;6147647;23;20009;-59
2021/10/17 10:58:35;;;;;;;11.10;4.85;;;;;;;;;;6114557;23;20403;-59
2021/10/17 11:01:02;;;;;;;10.43;4.93;;;;;;;;;;6146077;23;20024;-59
2021/10/17 11:03:41;;;;;;;10.95;4.68;;;;;;;;;;6146397;23;20009;-60
2021/10/17 11:06:09;;;;;;;10.15;4.95;;;;;;;;;;6144798;23;20127;-59
2021/10/17 11:08:41;;;;;;;8.73;4.50;;;;;;;;;;6143431;23;20327;-59
2021/10/17 11:11:08;;;;;;;9.13;4.47;;;;;;;;;;6148643;23;20013;-59
2021/10/17 11:13:34;;;;;;;9.00;5.03;;;;;;;;;;6146672;23;20455;-59
2021/10/17 11:16:02;;;;;;;10.27;4.80;;;;;;;;;;6146634;23;20085;-59
2021/10/17 11:18:29;;;;;;;;;;;;;;;;;;6144264;23;20037;-59
2021/10/17 11:20:55;;;;;;;10.68;4.63;;;;;;;;;;6147270;23;19935;-59
2021/10/17 11:23:28;;;;;;;7.50;4.47;;;;;;;;;;6147005;23;20085;-60
2021/10/17 11:25:58;;;;;;;8.52;4.45;;;;;;;;;;6120475;23;20365;-59
2021/10/17 11:28:25;;;;;;;10.50;4.55;;;;;;;;;;6146915;23;20095;-59
2021/10/17 11:31:02;;;;;;;10.30;4.35;;;;;;;;;;6121835;23;20017;-62
2021/10/17 11:33:27;;;;;;;10.93;4.63;;;;;;;;;;6146703;23;20039;-60
2021/10/17 11:35:55;;;;;;;10.15;4.30;;;;;;;;;;6146621;23;20151;-60
2021/10/17 11:38:21;;;;;;;7.95;4.50;;;;;;;;;;6147601;23;20006;-59
2021/10/17 11:40:46;;;;;;;7.25;4.07;;;;;;;;;;6144476;23;20056;-60
2021/10/17 11:43:12;;;;;;;6.47;4.28;;;;;;;;;;6148054;23;20005;-60
2021/10/17 11:45:43;;;;;;;9.85;4.88;;;;;;;;;;6148122;23;20024;-59
2021/10/17 11:48:13;;;;;;;7.45;4.07;;;;;;;;;;6146534;23;20030;-59
2021/10/17 11:50:41;;;;;;;8.63;4.60;;;;;;;;;;6147421;23;20068;-59
2021/10/17 11:53:09;;;;;;;6.22;4.18;;;;;;;;;;6121401;23;20084;-59
2021/10/17 11:56:02;;;;;;;8.60;4.32;;;;;;;;;;6146411;23;20019;-60
2021/10/17 11:58:29;;;;;;;7.82;4.15;;;;;;;;;;6140751;23;20022;-59
2021/10/17 12:01:04;;;;;;;10.73;4.22;;;;;;;;;;6145580;23;20124;-60
2021/10/17 12:03:29;;;;;;;7.07;4.03;;;;;;;;;;6144991;23;20048;-59
2021/10/17 12:05:55;;;;;;;7.72;3.97;;;;;;;;;;6142096;23;20037;-59
2021/10/17 12:08:24;;;;;;;8.45;3.67;;;;;;;;;;6118617;23;20005;-60
2021/10/17 12:11:09;;;;;;;6.32;3.72;;;;;;;;;;6146867;23;20093;-59
2021/10/17 12:13:50;;;;;;;9.20;4.15;;;;;;;;;;6146345;23;20001;-59
2021/10/17 12:16:18;;;;;;;6.88;3.53;;;;;;;;;;6143353;23;20009;-59
2021/10/17 12:18:46;;;;;;;11.38;4.03;;;;;;;;;;6141515;23;20005;-60
2021/10/17 12:21:15;;;;;;;6.97;3.67;;;;;;;;;;6140464;23;20320;-59
2021/10/17 12:23:44;;;;;;;8.07;3.70;;;;;;;;;;6143762;23;20349;-60
2021/10/17 12:26:13;;;;;;;5.90;3.45;;;;;;;;;;6140807;23;20035;-59
2021/10/17 12:28:39;;;;;;;5.75;3.00;;;;;;;;;;6144462;23;20097;-60
2021/10/17 12:31:04;;;;;;;6.40;2.95;;;;;;;;;;6147107;23;20457;-60
2021/10/17 12:33:33;;;;;;;7.63;3.30;;;;;;;;;;6146220;23;20056;-60
2021/10/17 12:36:00;;;;;;;9.05;3.30;;;;;;;;;;6144638;23;20008;-60
2021/10/17 12:38:31;;;;;;;5.50;3.17;;;;;;;;;;6146314;23;20009;-60
2021/10/17 12:40:59;;;;;;;5.43;2.80;;;;;;;;;;6146990;23;20110;-60
2021/10/17 12:43:34;;;;;;;7.15;2.92;;;;;;;;;;6146767;23;20439;-60
2021/10/17 12:46:17;;;;;;;4.88;2.60;;;;;;;;;;6145889;23;20775;-60
2021/10/17 12:48:47;;;;;;;4.47;2.53;;;;;;;;;;6145639;23;20009;-60
2021/10/17 12:51:28;;;;;;;5.28;2.78;;;;;;;;;;6144686;23;20013;-62
2021/10/17 12:54:17;;;;;;;6.53;2.70;;;;;;;;;;6147425;23;20005;-60
2021/10/17 12:56:54;;;;;;;9.35;2.97;;;;;;;;;;6147088;23;20032;-60
2021/10/17 12:59:26;;;;;;;4.82;2.30;;;;;;;;;;6143864;23;20016;-60
2021/10/17 13:02:06;;;;;;;6.35;2.85;;;;;;;;;;6147218;23;20005;-60
2021/10/17 13:04:54;;;;;;;5.75;2.47;;;;;;;;;;6145741;23;20420;-61
2021/10/17 13:07:25;;;;;;;4.70;2.50;;;;;;;;;;6120473;23;20013;-60
2021/10/17 13:09:53;;;;;;;4.38;2.50;;;;;;;;;;6147586;23;20032;-60
2021/10/17 13:12:23;;;;;;;7.82;2.70;;;;;;;;;;6146596;23;20436;-60
2021/10/17 13:14:58;;;;;;;4.47;2.35;;;;;;;;;;6146010;23;20033;-61
2021/10/17 13:17:24;;;;;;;3.92;2.20;;;;;;;;;;6144267;23;20028;-60
2021/10/17 13:19:50;;;;;;;4.10;2.33;;;;;;;;;;6143563;23;20010;-60
2021/10/17 13:22:15;;;;;;;4.32;2.30;;;;;;;;;;6146633;23;20001;-60
2021/10/17 13:24:41;;;;;;;5.78;2.53;;;;;;;;;;6145728;23;20085;-61
2021/10/17 13:27:08;;;;;;;2.95;2.20;;;;;;;;;;6147029;23;20074;-60
2021/10/17 13:29:34;;;;;;;4.00;2.10;;;;;;;;;;6144705;23;20006;-60
2021/10/17 13:32:00;;;;;;;5.18;2.63;;;;;;;;;;6146454;23;20013;-60
2021/10/17 13:34:26;;;;;;;8.00;3.58;;;;;;;;;;6147006;23;20034;-60
2021/10/17 13:36:51;;;;;;;3.80;2.22;;;;;;;;;;6149052;23;20033;-60
2021/10/17 13:39:16;;;;;;;3.88;2.20;;;;;;;;;;6148207;23;20360;-60
2021/10/17 13:41:42;;;;;;;5.90;2.38;;;;;;;;;;6149599;23;20748;-60
2021/10/17 13:44:08;;;;;;;6.70;2.45;;;;;;;;;;6120550;23;20576;-60
2021/10/17 13:46:36;;;;;;;5.88;2.40;;;;;;;;;;6148070;23;20033;-60
2021/10/17 13:49:02;;;;;;;5.35;2.40;;;;;;;;;;6147393;23;20009;-60
2021/10/17 13:51:28;;;;;;;3.13;2.08;;;;;;;;;;6146201;23;20010;-60
2021/10/17 13:53:54;;;;;;;3.13;2.10;;;;;;;;;;6148093;23;20428;-60
2021/10/17 13:56:19;;;;;;;4.55;2.13;;;;;;;;;;6148662;23;20013;-60
2021/10/17 13:58:44;;;;;;;7.32;4.07;;;;;;;;;;6148539;23;20017;-60
2021/10/17 14:01:10;;;;;;;4.65;2.83;;;;;;;;;;6148269;23;20440;-60
2021/10/17 14:03:36;;;;;;;4.13;2.40;;;;;;;;;;6144147;23;20011;-60
2021/10/17 14:06:01;;;;;;;4.05;2.40;;;;;;;;;;6119261;23;20017;-60
2021/10/17 14:08:27;;;;;;;3.13;2.13;;;;;;;;;;6120874;23;20009;-61
2021/10/17 14:10:54;;;;;;;3.65;2.15;;;;;;;;;;6119020;23;20092;-59
2021/10/17 14:13:20;;;;;;;;;;;;;;;;;;6148167;23;20001;-60
2021/10/17 14:15:45;;;;;;;3.97;2.43;;;;;;;;;;6148283;23;19916;-59
2021/10/17 14:18:11;;;;;;;4.30;2.15;;;;;;;;;;6147390;23;20016;-60
2021/10/17 14:20:38;;;;;;;14.73;9.93;;;;;;;;;;6144930;23;20390;-60
2021/10/17 14:23:03;;;;;;;4.63;2.13;;;;;;;;;;6147373;23;20321;-60
2021/10/17 14:25:29;;;;;;;10.02;6.88;;;;;;;;;;6145052;23;20104;-61
2021/10/17 14:27:54;;;;;;;7.40;5.45;;;;;;;;;;6146573;23;20005;-60
2021/10/17 14:30:20;;;;;;;3.22;2.10;;;;;;;;;;6147214;23;20040;-60
2021/10/17 14:32:45;;;;;;;5.28;1.90;;;;;;;;;;6147690;23;20016;-60
2021/10/17 14:35:10;;;;;;;4.13;2.08;;;;;;;;;;6146491;23;20387;-60
2021/10/17 14:37:36;;;;;;;2.25;1.67;;;;;;;;;;6121361;23;20005;-60
2021/10/17 14:40:01;;;;;;;3.03;1.77;;;;;;;;;;6146897;23;20509;-60